Time;durP1;ratioP1;P1;durP2;ratioP2;P2;SDS_P1;SDS_P2;PMS_P1;PMS_P2;Temp;Humidity;BMP_temperature;BMP_pressure;BME280_temperature;BME280_humidity;BME280_pressure;Samples;Min_cycle;Max_cycle;Signal;HPM_P1;HPM_P2
2022/10/18 00:00:20;;;;;;;16.20;9.55;;;;;;;18.47;100.00;101874.03;5090218;28;20044;-61
2022/10/18 00:02:47;;;;;;;15.20;9.15;;;;;;;18.44;100.00;101872.75;5090468;28;20044;-61
2022/10/18 00:05:15;;;;;;;13.93;8.52;;;;;;;18.51;100.00;101875.00;5087996;28;20055;-62
2022/10/18 00:07:42;;;;;;;13.85;7.97;;;;;;;18.57;100.00;101879.19;5088951;28;20052;-62
2022/10/18 00:10:09;;;;;;;11.43;7.30;;;;;;;18.46;100.00;101889.13;5087800;28;20067;-62
2022/10/18 00:12:37;;;;;;;12.13;7.10;;;;;;;18.39;100.00;101888.81;5090169;28;20059;-61
2022/10/18 00:15:06;;;;;;;11.98;7.40;;;;;;;18.48;100.00;101887.63;5091653;28;20059;-61
2022/10/18 00:17:37;;;;;;;12.18;7.32;;;;;;;18.37;100.00;101896.72;5087351;28;20819;-61
2022/10/18 00:20:05;;;;;;;10.32;7.13;;;;;;;18.35;100.00;101887.84;5093763;28;20454;-62
2022/10/18 00:22:35;;;;;;;11.43;7.75;;;;;;;18.53;100.00;101904.16;5084553;28;20043;-61
2022/10/18 00:25:02;;;;;;;12.13;7.25;;;;;;;18.56;100.00;101911.88;5089162;28;20070;-61
2022/10/18 00:27:31;;;;;;;14.10;7.10;;;;;;;18.57;100.00;101913.50;5100807;28;20058;-62
2022/10/18 00:29:58;;;;;;;13.23;7.50;;;;;;;18.57;100.00;101901.53;5122587;27;20051;-61
2022/10/18 00:32:25;;;;;;;12.40;7.40;;;;;;;18.56;100.00;101911.06;5086764;28;20044;-61
2022/10/18 00:34:53;;;;;;;12.93;7.50;;;;;;;18.33;100.00;101909.69;5093061;28;20475;-62
2022/10/18 00:37:20;;;;;;;12.82;7.40;;;;;;;18.47;100.00;101904.72;5090412;28;20048;-61
2022/10/18 00:39:47;;;;;;;12.68;7.13;;;;;;;18.43;100.00;101907.34;5083109;28;20059;-62
2022/10/18 00:42:16;;;;;;;11.10;7.35;;;;;;;18.45;100.00;101902.25;5092387;28;20593;-62
2022/10/18 00:44:43;;;;;;;14.05;7.80;;;;;;;18.57;100.00;101905.13;5091757;28;20044;-61
2022/10/18 00:47:13;;;;;;;13.73;7.70;;;;;;;18.62;100.00;101909.72;5093372;28;20048;-61
2022/10/18 00:49:47;;;;;;;10.43;6.90;;;;;;;18.60;100.00;101900.88;5093348;28;21090;-61
2022/10/18 00:52:18;;;;;;;15.43;7.50;;;;;;;18.61;100.00;101902.50;5081099;28;20048;-61
2022/10/18 00:54:46;;;;;;;13.18;7.82;;;;;;;18.50;100.00;101917.97;5106871;28;20061;-62
2022/10/18 00:57:13;;;;;;;14.02;7.90;;;;;;;18.42;100.00;101913.28;5090016;28;20464;-61
2022/10/18 00:59:41;;;;;;;12.90;7.65;;;;;;;18.50;100.00;101915.19;5090017;27;20053;-62
2022/10/18 01:02:09;;;;;;;10.80;7.10;;;;;;;18.49;100.00;101917.19;5121893;28;20048;-62
2022/10/18 01:04:36;;;;;;;13.13;7.30;;;;;;;18.64;100.00;101926.91;5093497;28;20062;-62
2022/10/18 01:07:17;;;;;;;12.05;7.50;;;;;;;18.65;100.00;101926.63;5086310;28;20044;-61
2022/10/18 01:09:59;;;;;;;;;;;;;;;18.55;100.00;101920.59;5118518;28;20052;-61
2022/10/18 01:12:51;;;;;;;13.75;7.57;;;;;;;18.54;100.00;101918.94;5122866;28;20363;-61
2022/10/18 01:15:26;;;;;;;12.10;7.18;;;;;;;18.50;100.00;101920.78;5088147;28;20063;-60
2022/10/18 01:17:54;;;;;;;11.05;7.32;;;;;;;18.55;100.00;101920.59;5082973;28;20056;-60
2022/10/18 01:20:48;;;;;;;13.32;7.85;;;;;;;18.71;100.00;101930.00;5091658;28;20040;-61
2022/10/18 01:23:31;;;;;;;13.25;8.45;;;;;;;18.60;100.00;101918.41;5079411;28;20422;-61
2022/10/18 01:26:36;;;;;;;15.95;8.10;;;;;;;18.69;100.00;101908.00;5088359;28;20055;-61
2022/10/18 01:29:12;;;;;;;15.25;8.57;;;;;;;18.63;100.00;101920.53;5086666;28;21418;-60
2022/10/18 01:32:06;;;;;;;14.20;8.57;;;;;;;18.63;100.00;101922.50;5097368;28;20070;-60
2022/10/18 01:34:35;;;;;;;13.98;9.93;;;;;;;18.68;100.00;101920.34;5091329;28;20059;-60
2022/10/18 01:37:07;;;;;;;13.25;9.30;;;;;;;18.71;100.00;101922.44;5103285;28;20055;-59
2022/10/18 01:39:37;;;;;;;15.48;9.35;;;;;;;18.57;100.00;101923.84;5093699;28;20059;-60
2022/10/18 01:42:05;;;;;;;;;;;;;;;18.60;100.00;101924.00;5077808;28;20045;-61
2022/10/18 01:44:33;;;;;;;15.38;10.48;;;;;;;18.66;100.00;101930.19;5099041;28;19928;-60
2022/10/18 01:47:00;;;;;;;14.68;9.48;;;;;;;18.66;100.00;101930.19;5086939;28;20051;-61
2022/10/18 01:49:27;;;;;;;15.25;10.23;;;;;;;18.62;100.00;101918.09;5122073;27;20507;-60
2022/10/18 01:51:55;;;;;;;16.23;10.40;;;;;;;18.51;100.00;101919.63;5102278;28;20066;-61
2022/10/18 01:54:28;;;;;;;19.17;10.10;;;;;;;18.54;100.00;101913.38;5091817;28;20480;-61
2022/10/18 01:57:17;;;;;;;14.18;9.88;;;;;;;18.64;100.00;101919.38;5095567;28;20067;-60
2022/10/18 01:59:57;;;;;;;19.20;10.50;;;;;;;18.78;100.00;101916.31;5078247;28;20618;-60
2022/10/18 02:02:47;;;;;;;18.10;9.88;;;;;;;18.64;100.00;101918.53;5088642;28;20058;-60
2022/10/18 02:05:39;;;;;;;13.90;9.95;;;;;;;18.69;100.00;101904.41;5096060;28;20059;-60
2022/10/18 02:08:33;;;;;;;14.18;9.75;;;;;;;18.65;100.00;101903.44;5088588;28;20075;-61
2022/10/18 02:11:27;;;;;;;15.05;10.48;;;;;;;18.56;100.00;101906.31;5085165;28;20054;-59
2022/10/18 02:13:57;;;;;;;17.02;10.63;;;;;;;18.48;100.00;101914.75;5078468;28;20060;-60
2022/10/18 02:16:35;;;;;;;15.85;10.45;;;;;;;18.50;100.00;101912.41;5076596;28;20056;-61
2022/10/18 02:19:17;;;;;;;16.88;10.35;;;;;;;18.53;100.00;101917.31;5095479;28;20052;-60
2022/10/18 02:21:46;;;;;;;17.95;11.38;;;;;;;18.46;100.00;101914.25;5094480;28;20074;-60
2022/10/18 02:24:14;;;;;;;13.65;9.82;;;;;;;18.50;100.00;101924.38;5089474;28;20036;-60
2022/10/18 02:26:41;;;;;;;15.32;10.10;;;;;;;18.65;100.00;101912.66;5089250;28;20052;-60
2022/10/18 02:29:09;;;;;;;16.02;10.75;;;;;;;18.70;100.00;101911.63;5085242;28;20045;-60
2022/10/18 02:31:43;;;;;;;15.82;10.07;;;;;;;18.69;100.00;101904.41;5095264;28;20060;-60
2022/10/18 02:34:19;;;;;;;17.83;11.13;;;;;;;18.55;100.00;101909.44;5084480;28;20049;-60
2022/10/18 02:36:53;;;;;;;19.25;10.93;;;;;;;18.41;100.00;101917.25;5094456;28;20055;-60
2022/10/18 02:39:27;;;;;;;16.77;11.15;;;;;;;18.52;100.00;101921.25;5091086;28;20051;-60
2022/10/18 02:41:55;;;;;;;15.20;10.25;;;;;;;18.59;100.00;101921.53;5100650;28;20055;-61
2022/10/18 02:44:23;;;;;;;18.20;10.70;;;;;;;18.63;100.00;101940.09;5101099;28;20061;-61
2022/10/18 02:46:50;;;;;;;16.25;11.15;;;;;;;18.58;100.00;101939.44;5098975;28;20044;-60
2022/10/18 02:49:17;;;;;;;17.55;11.00;;;;;;;18.53;100.00;101940.44;5098413;28;20058;-62
2022/10/18 02:51:44;;;;;;;15.95;10.93;;;;;;;18.56;100.00;101944.56;5103460;28;20447;-61
2022/10/18 02:54:12;;;;;;;16.23;11.23;;;;;;;18.67;100.00;101940.22;5102991;28;20043;-60
2022/10/18 02:56:39;;;;;;;18.58;11.25;;;;;;;18.64;100.00;101941.69;5095333;28;20518;-60
2022/10/18 02:59:07;;;;;;;18.38;10.25;;;;;;;18.69;100.00;101937.91;5094161;28;20071;-60
2022/10/18 03:01:35;;;;;;;16.40;10.52;;;;;;;18.72;100.00;101942.81;5091653;28;20170;-61
2022/10/18 03:04:05;;;;;;;16.60;11.07;;;;;;;18.61;100.00;101944.34;5096793;28;20052;-61
2022/10/18 03:06:32;;;;;;;15.65;10.38;;;;;;;18.63;100.00;101944.84;5089792;28;20410;-61
2022/10/18 03:09:04;;;;;;;14.40;11.07;;;;;;;18.53;100.00;101942.44;5099875;28;20045;-60
2022/10/18 03:11:31;;;;;;;19.60;12.00;;;;;;;18.53;100.00;101950.81;5096268;28;20039;-60
2022/10/18 03:13:58;;;;;;;17.00;11.95;;;;;;;18.54;100.00;101944.06;5094035;28;20041;-61
2022/10/18 03:16:29;;;;;;;18.33;12.48;;;;;;;18.34;100.00;101948.41;5094339;28;20471;-61
2022/10/18 03:18:56;;;;;;;17.60;12.05;;;;;;;18.35;100.00;101950.06;5089130;28;20056;-61
2022/10/18 03:21:24;;;;;;;19.13;11.98;;;;;;;18.33;100.00;101963.50;5117591;27;20036;-60
2022/10/18 03:23:51;;;;;;;19.15;12.13;;;;;;;18.27;100.00;101966.84;5092994;28;20170;-59
2022/10/18 03:26:20;;;;;;;18.45;12.27;;;;;;;18.17;100.00;101969.97;5090794;28;20058;-59
2022/10/18 03:28:47;;;;;;;19.17;12.98;;;;;;;18.19;100.00;101962.09;5094470;28;20154;-60
2022/10/18 03:31:15;;;;;;;17.30;12.20;;;;;;;18.24;100.00;101962.72;5091510;28;20056;-60
2022/10/18 03:33:42;;;;;;;15.35;11.45;;;;;;;18.30;100.00;101969.78;5095201;28;20056;-60
2022/10/18 03:36:10;;;;;;;17.02;12.20;;;;;;;18.36;100.00;101973.19;5094091;28;20047;-60
2022/10/18 03:38:38;;;;;;;19.00;12.15;;;;;;;18.41;100.00;101964.66;5095112;28;20052;-61
2022/10/18 03:41:05;;;;;;;18.88;12.30;;;;;;;18.22;100.00;101962.25;5086335;28;20047;-61
2022/10/18 03:43:44;;;;;;;16.70;12.63;;;;;;;18.09;100.00;101970.84;5063255;28;20060;-61
2022/10/18 03:46:11;;;;;;;19.67;12.73;;;;;;;18.04;100.00;101976.59;5091259;28;20528;-60
2022/10/18 03:48:38;;;;;;;19.52;12.60;;;;;;;17.93;100.00;101968.59;5094686;28;20063;-60
2022/10/18 03:51:06;;;;;;;17.85;12.75;;;;;;;18.17;100.00;101973.59;5091158;28;20048;-59
2022/10/18 03:53:33;;;;;;;19.55;12.75;;;;;;;18.20;100.00;101974.91;5090906;28;20057;-60
2022/10/18 03:56:00;;;;;;;21.77;13.00;;;;;;;18.13;100.00;101981.00;5086503;28;20344;-60
2022/10/18 03:58:27;;;;;;;18.95;12.73;;;;;;;18.25;100.00;101971.94;5090425;28;20044;-60
2022/10/18 04:00:55;;;;;;;20.65;12.55;;;;;;;18.36;100.00;101978.78;5086676;28;20048;-61
2022/10/18 04:03:22;;;;;;;19.73;12.27;;;;;;;18.27;100.00;101978.78;5092821;28;20043;-61
2022/10/18 04:05:53;;;;;;;16.17;12.35;;;;;;;18.28;100.00;101987.97;5092601;28;20044;-61
2022/10/18 04:08:20;;;;;;;19.60;13.77;;;;;;;18.40;100.00;101988.09;5088960;28;20704;-61
2022/10/18 04:10:47;;;;;;;19.02;12.52;;;;;;;18.39;100.00;101990.09;5093395;28;20048;-60
2022/10/18 04:13:15;;;;;;;17.45;13.05;;;;;;;18.36;100.00;101996.31;5115900;27;20056;-62
2022/10/18 04:15:42;;;;;;;20.63;13.30;;;;;;;18.33;100.00;101993.38;5095902;28;20040;-61
2022/10/18 04:18:10;;;;;;;20.13;14.30;;;;;;;18.22;100.00;101998.50;5093538;28;20425;-61
2022/10/18 04:20:37;;;;;;;22.63;14.43;;;;;;;18.26;100.00;101995.84;5084560;28;20052;-61
2022/10/18 04:23:04;;;;;;;23.27;14.95;;;;;;;18.25;100.00;101994.25;5086540;28;20056;-60
2022/10/18 04:25:42;;;;;;;22.33;14.60;;;;;;;18.21;100.00;101991.28;5090770;28;20035;-61
2022/10/18 04:28:17;;;;;;;23.48;15.68;;;;;;;18.08;100.00;101991.50;5086732;28;20056;-61
2022/10/18 04:30:52;;;;;;;25.05;15.88;;;;;;;18.18;100.00;101994.75;5093958;28;20055;-60
2022/10/18 04:33:19;;;;;;;29.35;18.65;;;;;;;17.98;100.00;101990.72;5083405;28;20079;-60
2022/10/18 04:35:50;;;;;;;24.23;16.67;;;;;;;17.96;100.00;101992.19;5091245;28;20044;-60
2022/10/18 04:38:19;;;;;;;30.15;20.10;;;;;;;17.83;100.00;101994.03;5094994;28;20047;-60
2022/10/18 04:40:46;;;;;;;32.35;20.25;;;;;;;17.98;100.00;101987.94;5095796;28;20395;-60
2022/10/18 04:43:13;;;;;;;32.50;20.38;;;;;;;18.01;100.00;101994.00;5087231;28;20051;-61
2022/10/18 04:45:41;;;;;;;31.70;22.60;;;;;;;18.05;100.00;101994.94;5088360;28;20040;-61
2022/10/18 04:48:08;;;;;;;33.70;23.40;;;;;;;18.03;100.00;101997.28;5084148;28;20130;-60
2022/10/18 04:50:35;;;;;;;36.58;24.65;;;;;;;17.82;100.00;101999.94;5092834;28;20056;-60
2022/10/18 04:53:14;;;;;;;38.22;25.80;;;;;;;17.81;100.00;102001.91;5095774;28;20050;-60
2022/10/18 04:55:48;;;;;;;37.20;24.98;;;;;;;17.79;100.00;102004.22;5093215;28;20040;-61
2022/10/18 04:58:16;;;;;;;38.47;26.20;;;;;;;17.93;100.00;102004.84;5087438;28;20044;-61
2022/10/18 05:00:43;;;;;;;41.47;26.08;;;;;;;17.89;100.00;102009.44;5082788;28;20130;-61
2022/10/18 05:03:12;;;;;;;46.15;27.80;;;;;;;17.72;100.00;102006.69;5095160;28;20055;-61
2022/10/18 05:05:39;;;;;;;40.42;27.50;;;;;;;17.71;100.00;102016.16;5101008;28;20044;-60
2022/10/18 05:08:27;;;;;;;41.13;27.88;;;;;;;17.76;100.00;102015.19;5101498;28;20054;-60
2022/10/18 05:10:54;;;;;;;45.13;28.55;;;;;;;17.66;100.00;102009.97;5099991;28;20051;-60
2022/10/18 05:13:22;;;;;;;46.45;29.58;;;;;;;17.69;100.00;102012.09;5085787;28;20054;-60
2022/10/18 05:15:49;;;;;;;46.40;28.52;;;;;;;17.67;100.00;102009.63;5093888;28;20059;-60
2022/10/18 05:18:17;;;;;;;45.83;29.25;;;;;;;17.55;100.00;102006.72;5108589;28;20055;-60
2022/10/18 05:20:44;;;;;;;46.35;29.63;;;;;;;17.59;100.00;102010.44;5092965;28;20048;-61
2022/10/18 05:23:11;;;;;;;47.67;29.92;;;;;;;17.60;100.00;102006.53;5079299;28;20044;-60
2022/10/18 05:25:42;;;;;;;52.33;30.55;;;;;;;17.54;100.00;102010.63;5103590;28;20044;-61
2022/10/18 05:28:09;;;;;;;48.85;31.30;;;;;;;17.38;100.00;102005.84;5098017;28;20134;-60
2022/10/18 05:31:10;;;;;;;53.92;31.45;;;;;;;17.50;100.00;102015.22;5090892;28;20045;-62
2022/10/18 05:33:38;;;;;;;46.90;29.23;;;;;;;17.59;100.00;102010.44;5084244;28;20048;-60
2022/10/18 05:36:05;;;;;;;49.30;29.27;;;;;;;17.56;100.00;102004.72;5084857;28;20036;-59
2022/10/18 05:38:33;;;;;;;62.38;38.20;;;;;;;17.71;100.00;102013.38;5092268;28;20048;-61
2022/10/18 05:41:09;;;;;;;56.13;33.67;;;;;;;17.81;100.00;102009.44;5100310;28;20399;-63
2022/10/18 05:43:36;;;;;;;53.17;32.03;;;;;;;17.85;100.00;102013.22;5100689;28;20051;-60
2022/10/18 05:46:07;;;;;;;60.60;36.85;;;;;;;17.87;100.00;102016.47;5094935;28;20044;-62
2022/10/18 05:48:43;;;;;;;73.50;47.10;;;;;;;17.77;100.00;102016.81;5109379;28;20044;-60
2022/10/18 05:51:10;;;;;;;63.85;40.60;;;;;;;17.75;100.00;102014.38;5104294;28;20051;-60
2022/10/18 05:53:38;;;;;;;59.10;36.92;;;;;;;17.86;100.00;102014.84;5106052;28;20506;-60
2022/10/18 05:56:06;;;;;;;58.33;34.50;;;;;;;17.83;100.00;102024.72;5107225;27;20130;-60
2022/10/18 05:58:33;;;;;;;55.45;34.42;;;;;;;18.02;100.00;102021.53;5105139;28;20514;-60
2022/10/18 06:01:01;;;;;;;58.83;33.85;;;;;;;17.89;100.00;102023.38;5097480;28;20044;-60
2022/10/18 06:03:29;;;;;;;57.80;33.88;;;;;;;17.84;100.00;102028.28;5093002;28;20040;-60
2022/10/18 06:06:07;;;;;;;55.13;32.03;;;;;;;17.76;100.00;102026.34;5103465;28;20044;-62
2022/10/18 06:08:36;;;;;;;53.03;32.30;;;;;;;18.05;100.00;102033.97;5096987;28;20438;-62
2022/10/18 06:11:06;;;;;;;58.15;33.60;;;;;;;17.96;100.00;102031.22;5091645;28;20059;-61
2022/10/18 06:13:33;;;;;;;57.28;33.40;;;;;;;17.95;100.00;102037.97;5106607;28;20060;-63
2022/10/18 06:16:01;;;;;;;56.85;34.00;;;;;;;17.92;100.00;102033.84;5089954;28;20052;-61
2022/10/18 06:18:28;;;;;;;58.15;33.53;;;;;;;17.96;100.00;102042.38;5109002;28;20062;-59
2022/10/18 06:20:57;;;;;;;58.22;31.92;;;;;;;17.90;100.00;102041.72;5068659;28;20048;-60
2022/10/18 06:23:27;;;;;;;73.38;44.03;;;;;;;18.03;100.00;102045.47;5092733;28;20048;-61
2022/10/18 06:26:00;;;;;;;102.75;69.72;;;;;;;18.07;100.00;102043.66;5125099;27;20194;-62
2022/10/18 06:28:28;;;;;;;77.10;43.33;;;;;;;18.18;100.00;102047.75;5092413;28;20055;-61
2022/10/18 06:30:56;;;;;;;56.83;32.38;;;;;;;18.30;100.00;102049.84;5099898;28;20040;-62
2022/10/18 06:33:24;;;;;;;50.83;31.45;;;;;;;18.17;100.00;102045.28;5093375;28;20044;-64
2022/10/18 06:35:55;;;;;;;61.13;33.75;;;;;;;18.22;100.00;102050.69;5093096;28;20067;-64
2022/10/18 06:38:23;;;;;;;54.38;32.10;;;;;;;18.24;100.00;102042.78;5098701;28;20044;-63
2022/10/18 06:40:50;;;;;;;49.13;30.73;;;;;;;18.08;100.00;102047.28;5094270;28;20051;-63
2022/10/18 06:43:18;;;;;;;58.47;32.03;;;;;;;18.12;100.00;102049.06;5093338;28;20044;-63
2022/10/18 06:45:48;;;;;;;54.10;30.45;;;;;;;18.15;100.00;102056.75;5091033;28;20537;-63
2022/10/18 06:48:16;;;;;;;55.47;30.42;;;;;;;18.19;100.00;102054.13;5100778;28;20048;-63
2022/10/18 06:50:55;;;;;;;57.15;30.90;;;;;;;18.16;100.00;102063.16;5093404;28;20047;-65
2022/10/18 06:53:24;;;;;;;54.30;31.13;;;;;;;18.11;100.00;102068.91;5101785;28;20055;-64
2022/10/18 06:55:52;;;;;;;54.67;29.70;;;;;;;18.24;100.00;102063.13;5099090;28;20044;-64
2022/10/18 06:58:19;;;;;;;51.83;30.30;;;;;;;18.24;100.00;102067.88;5096798;28;20062;-65
2022/10/18 07:00:46;;;;;;;53.95;29.10;;;;;;;18.34;100.00;102065.56;5093281;28;20053;-64
2022/10/18 07:03:13;;;;;;;69.78;50.33;;;;;;;18.35;100.00;102075.59;5097116;28;20048;-63
2022/10/18 07:05:41;;;;;;;72.25;49.38;;;;;;;18.33;100.00;102068.69;5088294;28;20059;-61
2022/10/18 07:08:08;;;;;;;48.00;29.48;;;;;;;18.29;100.00;102070.53;5098798;28;20060;-63
2022/10/18 07:10:36;;;;;;;49.58;28.95;;;;;;;18.39;100.00;102068.19;5092734;28;20048;-62
2022/10/18 07:13:03;;;;;;;47.15;28.08;;;;;;;18.53;100.00;102071.59;5086687;28;20049;-62
2022/10/18 07:16:07;;;;;;;43.88;27.38;;;;;;;18.66;100.00;102072.53;5091025;28;20051;-64
2022/10/18 07:18:37;;;;;;;49.50;27.33;;;;;;;18.78;100.00;102078.22;5093446;28;20051;-64
2022/10/18 07:21:10;;;;;;;49.65;26.75;;;;;;;18.54;100.00;102076.03;5092775;28;20073;-63
2022/10/18 07:23:39;;;;;;;42.80;26.25;;;;;;;18.55;100.00;102082.47;5077712;28;20051;-62
2022/10/18 07:26:18;;;;;;;42.85;24.90;;;;;;;18.61;100.00;102086.69;5096734;28;20051;-62
2022/10/18 07:28:48;;;;;;;42.33;27.40;;;;;;;18.68;100.00;102090.59;5098394;28;20039;-62
2022/10/18 07:31:16;;;;;;;38.72;25.52;;;;;;;18.81;100.00;102086.75;5099786;28;20434;-62
2022/10/18 07:33:44;;;;;;;31.35;18.33;;;;;;;18.86;100.00;102096.94;5096073;28;20040;-63
2022/10/18 07:36:12;;;;;;;24.45;16.75;;;;;;;18.71;98.95;102092.72;5087261;28;20032;-63
2022/10/18 07:38:40;;;;;;;23.48;15.98;;;;;;;18.56;100.00;102087.69;5112721;27;20436;-62
2022/10/18 07:41:09;;;;;;;22.42;14.70;;;;;;;18.57;100.00;102096.88;5108544;27;20055;-62
2022/10/18 07:43:40;;;;;;;19.58;14.13;;;;;;;18.60;100.00;102096.22;5087783;28;20051;-65
2022/10/18 07:46:08;;;;;;;21.42;13.27;;;;;;;18.72;99.62;102105.53;5062673;28;20067;-62
2022/10/18 07:48:35;;;;;;;18.67;12.77;;;;;;;18.90;98.61;102107.09;5091360;28;20169;-65
2022/10/18 07:51:03;;;;;;;19.08;12.73;;;;;;;19.06;97.45;102104.53;5087205;28;20438;-63
2022/10/18 07:53:31;;;;;;;22.55;13.00;;;;;;;18.98;97.56;102116.59;5086641;28;20063;-63
2022/10/18 07:56:14;;;;;;;20.08;11.60;;;;;;;18.74;97.22;102127.53;5089515;28;20047;-62
2022/10/18 07:58:43;;;;;;;147.30;23.08;;;;;;;18.51;97.91;102120.53;5086147;28;20052;-62
2022/10/18 08:01:11;;;;;;;17.92;8.52;;;;;;;18.61;96.94;102129.38;5065733;28;20052;-62
2022/10/18 08:03:40;;;;;;;15.68;8.15;;;;;;;18.66;96.36;102133.94;5096198;28;20059;-63
2022/10/18 08:06:08;;;;;;;14.35;8.55;;;;;;;18.64;96.87;102128.69;5107533;27;20052;-63
2022/10/18 08:08:37;;;;;;;16.30;7.90;;;;;;;18.59;96.62;102126.09;5089124;28;20384;-62
2022/10/18 08:11:08;;;;;;;12.85;7.82;;;;;;;18.82;97.07;102138.66;5088827;28;20053;-62
2022/10/18 08:13:36;;;;;;;15.23;7.93;;;;;;;18.78;96.31;102131.28;5082581;28;20040;-62
2022/10/18 08:16:05;;;;;;;13.43;6.93;;;;;;;18.80;94.86;102137.34;5089313;28;20052;-63
2022/10/18 08:18:33;;;;;;;13.18;7.05;;;;;;;18.74;95.29;102135.91;5092196;28;20051;-62
2022/10/18 08:21:02;;;;;;;16.00;7.30;;;;;;;18.94;94.51;102137.94;5084838;28;20039;-63
2022/10/18 08:23:29;;;;;;;12.68;6.95;;;;;;;18.93;93.72;102151.09;5099811;28;20055;-63
2022/10/18 08:26:04;;;;;;;11.10;6.88;;;;;;;19.07;92.60;102154.47;5086416;28;20043;-63
2022/10/18 08:28:31;;;;;;;50.75;11.07;;;;;;;19.02;92.70;102149.06;5096187;28;20648;-63
2022/10/18 08:31:07;;;;;;;47.35;9.45;;;;;;;18.91;92.87;102152.59;5090294;28;20415;-64
2022/10/18 08:33:35;;;;;;;11.35;6.63;;;;;;;18.53;94.07;102158.13;5097734;28;20047;-64
2022/10/18 08:36:06;;;;;;;13.85;6.93;;;;;;;18.66;94.93;102154.31;5100040;28;20043;-63
2022/10/18 08:38:34;;;;;;;14.20;7.82;;;;;;;18.69;94.42;102164.00;5106520;28;20039;-63
2022/10/18 08:41:41;;;;;;;17.55;7.93;;;;;;;18.63;95.26;102168.13;5092299;28;20060;-63
2022/10/18 08:44:27;;;;;;;15.85;8.43;;;;;;;18.67;95.49;102161.53;5074447;28;20693;-63
2022/10/18 08:47:04;;;;;;;12.18;7.53;;;;;;;18.62;95.08;102155.31;5102013;28;20047;-63
2022/10/18 08:49:39;;;;;;;13.70;8.40;;;;;;;18.76;95.22;102153.94;5097191;28;20063;-62
2022/10/18 08:52:24;;;;;;;15.88;9.48;;;;;;;19.00;94.16;102156.16;5096176;28;20048;-63
2022/10/18 08:55:08;;;;;;;11.43;8.00;;;;;;;19.12;91.01;102150.69;5105571;28;20044;-63
2022/10/18 08:57:36;;;;;;;183.20;25.13;;;;;;;19.13;91.53;102135.56;5092123;28;20396;-63
2022/10/18 09:00:24;;;;;;;185.63;27.88;;;;;;;19.08;92.67;102144.94;5090867;28;20056;-63
2022/10/18 09:03:15;;;;;;;36.67;10.60;;;;;;;18.73;93.37;102142.63;5103023;28;20059;-63
2022/10/18 09:05:49;;;;;;;23.17;8.73;;;;;;;18.76;93.16;102144.75;5091283;28;20056;-63
2022/10/18 09:08:22;;;;;;;15.55;9.45;;;;;;;18.88;93.27;102147.69;5085564;28;20162;-63
2022/10/18 09:11:19;;;;;;;14.90;7.72;;;;;;;19.08;93.38;102142.16;5091342;28;20047;-63
2022/10/18 09:14:04;;;;;;;801.17;83.25;;;;;;;19.42;91.76;102152.34;5072798;28;20404;-63
2022/10/18 09:16:53;;;;;;;95.15;17.42;;;;;;;19.41;91.16;102153.50;5087998;28;20066;-63
2022/10/18 09:19:23;;;;;;;14.15;7.13;;;;;;;19.30;90.10;102151.41;5081326;28;20051;-63
2022/10/18 09:21:53;;;;;;;15.45;6.63;;;;;;;19.51;89.78;102147.50;5081843;28;20052;-63
2022/10/18 09:24:39;;;;;;;160.57;17.85;;;;;;;19.55;88.62;102150.44;5094374;28;20040;-63
2022/10/18 09:27:16;;;;;;;67.15;11.65;;;;;;;19.41;89.20;102149.88;5094556;28;20059;-63
2022/10/18 09:30:08;;;;;;;95.85;15.02;;;;;;;19.25;88.18;102148.81;5104674;28;20052;-63
2022/10/18 09:32:43;;;;;;;63.00;12.15;;;;;;;19.40;88.35;102142.66;5095504;28;20059;-63
2022/10/18 09:35:12;;;;;;;28.05;8.82;;;;;;;19.61;87.46;102144.34;5092426;28;20048;-62
2022/10/18 09:37:40;;;;;;;16.70;8.15;;;;;;;19.64;87.54;102140.84;5099389;28;20040;-62
2022/10/18 09:40:18;;;;;;;26.17;10.32;;;;;;;19.54;86.87;102137.66;5094461;28;20040;-62
2022/10/18 09:43:10;;;;;;;57.47;12.90;;;;;;;19.41;87.36;102156.28;5081654;28;20052;-62
2022/10/18 09:45:40;;;;;;;10.98;7.85;;;;;;;19.30;88.32;102143.88;5092826;28;20067;-63
2022/10/18 09:48:27;;;;;;;16.92;7.53;;;;;;;19.22;89.05;102144.72;5090227;28;20571;-63
2022/10/18 09:51:20;;;;;;;10.90;7.38;;;;;;;19.09;89.72;102159.72;5073465;28;20530;-62
2022/10/18 09:53:50;;;;;;;56.50;11.40;;;;;;;19.06;91.34;102160.41;5097770;28;20044;-63
2022/10/18 09:56:23;;;;;;;24.90;8.55;;;;;;;19.34;90.46;102157.97;5093194;28;20494;-61
2022/10/18 09:58:51;;;;;;;24.58;7.18;;;;;;;19.63;89.02;102158.78;5084764;28;20047;-62
2022/10/18 10:01:38;;;;;;;10.45;6.03;;;;;;;19.49;86.81;102158.22;5088127;28;20051;-64
2022/10/18 10:04:06;;;;;;;12.73;6.35;;;;;;;19.32;87.69;102157.53;5088897;28;21981;-64
2022/10/18 10:06:33;;;;;;;57.17;9.40;;;;;;;19.35;88.70;102163.25;5092015;28;20063;-63
2022/10/18 10:09:06;;;;;;;49.00;10.80;;;;;;;19.49;87.98;102157.41;5104027;28;20051;-62
2022/10/18 10:11:39;;;;;;;15.07;5.70;;;;;;;19.49;87.36;102160.22;5093702;28;20056;-62
2022/10/18 10:14:15;;;;;;;17.58;5.80;;;;;;;19.26;87.89;102150.44;5099596;28;20047;-62
2022/10/18 10:17:20;;;;;;;12.20;4.30;;;;;;;19.51;88.11;102153.09;5104951;28;20057;-63
2022/10/18 10:20:19;;;;;;;251.57;24.70;;;;;;;19.79;86.68;102145.00;5098685;28;20044;-63
2022/10/18 10:22:49;;;;;;;32.70;6.03;;;;;;;19.88;86.06;102156.94;5091778;28;20044;-64
2022/10/18 10:25:20;;;;;;;14.53;3.97;;;;;;;20.01;85.68;102153.88;5110042;27;20054;-65
2022/10/18 10:27:47;;;;;;;7.97;3.00;;;;;;;19.89;86.02;102155.81;5101345;28;20304;-63
2022/10/18 10:30:26;;;;;;;45.30;6.07;;;;;;;20.06;85.22;102153.69;5103099;28;20048;-63
2022/10/18 10:32:54;;;;;;;20.38;4.85;;;;;;;20.22;84.61;102158.66;5122692;27;20047;-64
2022/10/18 10:35:42;;;;;;;236.35;31.63;;;;;;;20.21;83.42;102157.03;5096684;28;20062;-61
2022/10/18 10:38:27;;;;;;;28.60;6.65;;;;;;;20.35;83.45;102152.75;5086673;28;20044;-65
2022/10/18 10:40:55;;;;;;;9.40;4.03;;;;;;;20.41;82.80;102145.81;5089998;28;20055;-65
2022/10/18 10:43:33;;;;;;;8.02;3.25;;;;;;;20.36;82.29;102151.63;5092096;28;20048;-65
2022/10/18 10:46:11;;;;;;;10.73;3.28;;;;;;;20.25;83.66;102143.97;5085418;28;20587;-63
2022/10/18 10:48:51;;;;;;;7.60;2.33;;;;;;;20.10;82.48;102139.81;5073347;28;20044;-63
2022/10/18 10:51:39;;;;;;;7.97;2.60;;;;;;;20.20;83.44;102149.78;5086894;28;20075;-65
2022/10/18 10:54:17;;;;;;;5.18;2.20;;;;;;;20.14;82.76;102146.34;5103337;28;20282;-65
2022/10/18 10:57:11;;;;;;;5.65;2.58;;;;;;;19.99;84.13;102149.78;5075687;28;20128;-66
2022/10/18 10:59:55;;;;;;;12.20;3.40;;;;;;;20.15;84.38;102139.59;5093675;28;20056;-66
2022/10/18 11:02:32;;;;;;;10.45;3.67;;;;;;;20.19;84.38;102142.56;5074256;28;20051;-65
2022/10/18 11:05:28;;;;;;;23.90;12.75;;;;;;;20.05;85.22;102140.00;5090834;28;20048;-65
2022/10/18 11:08:01;;;;;;;28.58;17.30;;;;;;;20.19;85.14;102137.78;5092903;28;20044;-63
2022/10/18 11:10:31;;;;;;;22.27;14.20;;;;;;;20.09;85.01;102133.41;5100724;28;20054;-63
2022/10/18 11:13:23;;;;;;;14.88;8.88;;;;;;;19.98;85.92;102148.97;5099435;28;20052;-63
2022/10/18 11:15:59;;;;;;;15.30;7.07;;;;;;;20.14;86.12;102135.16;5089446;27;20059;-65
2022/10/18 11:18:32;;;;;;;13.68;7.65;;;;;;;20.21;85.33;102134.66;5090645;28;20071;-63
2022/10/18 11:21:16;;;;;;;12.85;5.43;;;;;;;20.12;85.11;102131.88;5092399;28;20058;-63
2022/10/18 11:23:44;;;;;;;12.85;4.70;;;;;;;20.10;85.35;102134.22;5087342;28;20067;-61
2022/10/18 11:26:11;;;;;;;9.32;4.88;;;;;;;20.19;85.18;102129.38;5093023;28;21144;-63
2022/10/18 11:29:10;;;;;;;14.95;4.60;;;;;;;20.32;84.96;102124.66;5105380;28;20040;-62
2022/10/18 11:31:49;;;;;;;17.13;6.18;;;;;;;20.26;85.03;102126.84;5089981;28;20048;-62